Time;durP1;ratioP1;P1;durP2;ratioP2;P2;SDS_P1;SDS_P2;PMS_P1;PMS_P2;Temp;Humidity;BMP_temperature;BMP_pressure;BME280_temperature;BME280_humidity;BME280_pressure;Samples;Min_cycle;Max_cycle;Signal;HPM_P1;HPM_P2
2023/10/05 00:00:47;;;;;;;10.25;2.60;;;17.10;99.90;;;;;;5010154;28;20073;-71
2023/10/05 00:03:13;;;;;;;7.25;2.30;;;17.10;99.90;;;;;;5024472;28;20055;-71
2023/10/05 00:05:38;;;;;;;7.68;2.00;;;17.10;99.90;;;;;;5023055;28;20398;-76
2023/10/05 00:08:04;;;;;;;5.68;1.85;;;17.20;99.90;;;;;;5022209;28;20033;-74
2023/10/05 00:10:33;;;;;;;7.13;2.05;;;17.10;99.90;;;;;;4993733;28;20120;-71
2023/10/05 00:13:07;;;;;;;7.35;2.33;;;17.10;99.90;;;;;;5027503;28;20046;-73
2023/10/05 00:15:36;;;;;;;8.90;2.30;;;17.00;99.90;;;;;;5007204;28;20052;-74
2023/10/05 00:18:05;;;;;;;4.32;1.75;;;17.00;99.90;;;;;;5010911;28;20437;-75
2023/10/05 00:20:38;;;;;;;7.82;2.22;;;17.00;99.90;;;;;;4999701;28;20124;-74
2023/10/05 00:23:08;;;;;;;6.47;1.85;;;17.00;99.90;;;;;;5010907;28;20103;-73
2023/10/05 00:25:34;;;;;;;8.32;2.22;;;17.10;99.90;;;;;;5009950;28;20052;-75
2023/10/05 00:28:04;;;;;;;6.00;2.08;;;17.00;99.90;;;;;;5001232;28;20120;-75
2023/10/05 00:30:31;;;;;;;5.18;2.00;;;17.10;99.90;;;;;;4976313;28;20545;-77
2023/10/05 00:32:59;;;;;;;6.30;2.20;;;17.10;99.90;;;;;;5042906;28;20131;-71
2023/10/05 00:35:32;;;;;;;7.93;2.20;;;17.10;99.90;;;;;;4988477;28;20488;-72
2023/10/05 00:38:07;;;;;;;11.45;2.42;;;17.10;99.90;;;;;;4992759;28;20081;-74
2023/10/05 00:40:37;;;;;;;6.30;2.38;;;17.00;99.90;;;;;;5005445;28;20037;-75
2023/10/05 00:43:07;;;;;;;9.43;2.40;;;17.10;99.90;;;;;;5044176;28;20053;-72
2023/10/05 00:45:33;;;;;;;5.90;2.25;;;17.00;99.90;;;;;;5025512;28;20056;-73
2023/10/05 00:49:00;;;;;;;5.45;1.92;;;17.00;99.90;;;;;;4988139;28;20034;-71
2023/10/05 00:50:51;;;;;;;10.73;2.60;;;17.00;99.90;;;;;;4999720;28;20103;-71
2023/10/05 00:53:17;;;;;;;8.57;2.63;;;17.00;99.90;;;;;;4994564;28;20046;-76
2023/10/05 00:55:51;;;;;;;7.40;2.75;;;17.00;99.90;;;;;;5001695;28;20473;-74
2023/10/05 00:58:17;;;;;;;9.48;2.22;;;17.00;99.90;;;;;;4994555;28;20359;-74
2023/10/05 01:00:53;;;;;;;6.30;2.55;;;17.00;99.90;;;;;;5011294;28;20048;-71
2023/10/05 01:05:51;;;;;;;7.72;2.20;;;16.90;99.90;;;;;;5014870;28;20132;-72
2023/10/05 01:08:23;;;;;;;7.95;2.10;;;17.00;99.90;;;;;;4998880;28;20436;-73
2023/10/05 01:10:53;;;;;;;7.05;2.30;;;17.00;99.90;;;;;;5003132;28;20045;-74
2023/10/05 01:13:29;;;;;;;6.97;3.00;;;16.90;99.90;;;;;;5021116;28;20037;-73
2023/10/05 01:15:55;;;;;;;8.07;1.92;;;17.00;99.90;;;;;;5007930;28;20038;-73
2023/10/05 01:18:27;;;;;;;8.50;2.53;;;17.00;99.90;;;;;;5009514;28;20377;-74
2023/10/05 01:20:55;;;;;;;6.63;2.20;;;17.10;99.90;;;;;;5024676;28;20039;-76
2023/10/05 01:23:38;;;;;;;11.70;2.47;;;17.10;99.90;;;;;;4992613;28;21579;-73
2023/10/05 01:26:10;;;;;;;6.50;2.45;;;17.10;99.90;;;;;;4999740;28;20482;-75
2023/10/05 01:28:37;;;;;;;7.90;2.35;;;17.10;99.90;;;;;;5007593;28;20072;-74
2023/10/05 01:31:07;;;;;;;8.18;2.38;;;17.20;99.90;;;;;;5027352;28;20037;-71
2023/10/05 01:33:34;;;;;;;13.20;2.80;;;17.10;99.90;;;;;;5003953;28;20065;-72
2023/10/05 01:35:59;;;;;;;6.78;2.30;;;17.10;99.90;;;;;;5001325;28;20073;-71
2023/10/05 01:38:27;;;;;;;6.47;2.35;;;17.10;99.90;;;;;;5008603;28;20107;-74
2023/10/05 01:40:57;;;;;;;7.70;2.38;;;17.10;99.90;;;;;;5010309;28;20033;-73
2023/10/05 01:43:23;;;;;;;10.30;2.88;;;17.10;99.90;;;;;;5014251;28;20040;-71
2023/10/05 01:45:48;;;;;;;8.18;2.25;;;17.10;99.90;;;;;;5022390;28;20386;-70
2023/10/05 01:48:18;;;;;;;10.25;2.50;;;17.20;99.90;;;;;;5009903;28;20427;-72
2023/10/05 01:50:44;;;;;;;8.65;2.85;;;17.20;99.90;;;;;;5039541;28;20069;-74
2023/10/05 01:53:19;;;;;;;10.00;2.70;;;17.20;99.90;;;;;;5004173;28;20136;-75
2023/10/05 01:55:45;;;;;;;9.43;2.38;;;17.20;99.90;;;;;;5008194;28;20037;-72
2023/10/05 01:58:22;;;;;;;8.63;2.15;;;17.10;99.90;;;;;;5009816;28;20056;-71
2023/10/05 02:00:47;;;;;;;7.70;3.15;;;17.10;99.90;;;;;;5006496;28;20379;-72
2023/10/05 02:03:13;;;;;;;7.97;2.53;;;17.10;99.90;;;;;;5022297;28;20048;-72
2023/10/05 02:05:39;;;;;;;8.50;2.53;;;17.00;99.90;;;;;;5006977;28;20042;-76
2023/10/05 02:08:05;;;;;;;8.32;2.33;;;17.10;99.90;;;;;;5008898;28;20072;-74
2023/10/05 02:10:39;;;;;;;9.20;2.30;;;17.10;99.90;;;;;;5037739;28;20116;-73
2023/10/05 02:13:11;;;;;;;6.75;2.17;;;17.10;99.90;;;;;;5003588;28;20053;-75
2023/10/05 02:15:41;;;;;;;9.75;2.90;;;17.10;99.90;;;;;;5011329;28;20044;-73
2023/10/05 02:21:16;;;;;;;8.68;2.38;;;17.10;99.90;;;;;;5010680;28;20115;-72
2023/10/05 02:23:44;;;;;;;7.70;2.30;;;17.10;99.90;;;;;;4991283;28;20381;-75
2023/10/05 02:28:58;;;;;;;9.45;2.70;;;17.30;99.90;;;;;;5013406;28;20104;-74
2023/10/05 02:31:28;;;;;;;12.07;2.50;;;17.40;99.90;;;;;;4988469;28;20052;-73
2023/10/05 02:33:58;;;;;;;5.80;2.17;;;17.30;99.90;;;;;;5001051;28;20482;-74
2023/10/05 02:36:26;;;;;;;8.07;2.22;;;17.40;99.90;;;;;;5014377;28;20038;-71
2023/10/05 02:38:56;;;;;;;9.75;3.13;;;17.30;99.90;;;;;;5011588;28;20032;-73
2023/10/05 02:41:30;;;;;;;8.73;2.30;;;17.30;99.90;;;;;;5039768;28;20034;-73
2023/10/05 02:43:58;;;;;;;8.18;2.50;;;17.30;99.90;;;;;;5035202;28;20050;-73
2023/10/05 02:46:26;;;;;;;10.25;2.72;;;17.30;99.90;;;;;;5046917;28;20124;-74
2023/10/05 02:48:52;;;;;;;11.98;2.78;;;17.30;99.90;;;;;;4980239;28;20030;-72
2023/10/05 02:51:18;;;;;;;10.70;2.63;;;17.40;99.90;;;;;;5049416;28;20733;-70
2023/10/05 02:53:46;;;;;;;7.43;2.88;;;17.30;99.90;;;;;;5008382;28;20041;-76
2023/10/05 02:56:22;;;;;;;9.27;2.40;;;17.30;99.90;;;;;;4995554;28;20038;-72
2023/10/05 02:58:50;;;;;;;8.85;2.28;;;17.30;99.90;;;;;;5005519;28;21972;-72
2023/10/05 03:01:16;;;;;;;10.70;3.10;;;17.40;99.90;;;;;;4989241;28;20104;-76
2023/10/05 03:03:45;;;;;;;9.82;2.08;;;17.30;99.90;;;;;;5008310;28;20029;-72
2023/10/05 03:06:11;;;;;;;9.95;2.35;;;17.30;99.90;;;;;;5027890;28;20517;-72
2023/10/05 03:08:37;;;;;;;9.80;2.38;;;17.30;99.90;;;;;;5015688;28;20109;-73
2023/10/05 03:11:08;;;;;;;7.55;2.78;;;17.20;99.90;;;;;;4996210;28;20132;-74
2023/10/05 03:13:36;;;;;;;8.00;2.38;;;17.30;99.90;;;;;;5013006;28;20144;-73
2023/10/05 03:16:06;;;;;;;9.02;2.50;;;17.30;99.90;;;;;;5011051;28;20038;-70
2023/10/05 03:18:37;;;;;;;13.30;2.92;;;17.40;99.90;;;;;;4990018;28;20057;-77
2023/10/05 03:21:13;;;;;;;6.90;2.63;;;17.40;99.90;;;;;;5033517;28;20065;-72
2023/10/05 03:23:43;;;;;;;9.52;2.20;;;17.40;99.90;;;;;;5012722;28;20037;-75
2023/10/05 03:26:11;;;;;;;7.65;2.33;;;17.50;99.90;;;;;;5013981;28;20111;-73
2023/10/05 03:28:37;;;;;;;9.65;2.50;;;17.40;99.90;;;;;;5013524;28;20045;-74
2023/10/05 03:31:12;;;;;;;10.27;2.72;;;17.50;99.90;;;;;;4994932;28;20131;-75
2023/10/05 03:33:39;;;;;;;11.38;2.60;;;17.60;99.90;;;;;;5046343;28;20037;-70
2023/10/05 03:36:14;;;;;;;6.75;2.10;;;17.60;99.90;;;;;;5013452;28;20037;-75
2023/10/05 03:38:41;;;;;;;;;;;17.70;99.90;;;;;;5014034;28;20053;-72
2023/10/05 03:41:13;;;;;;;10.63;2.20;;;17.70;99.90;;;;;;4997206;28;19971;-75
2023/10/05 03:43:39;;;;;;;11.23;2.53;;;17.70;99.90;;;;;;4981710;28;20129;-72
2023/10/05 03:46:08;;;;;;;11.27;3.03;;;17.80;99.90;;;;;;4997178;28;20041;-74
2023/10/05 03:48:41;;;;;;;6.10;2.25;;;17.70;99.90;;;;;;5012585;28;20099;-73
2023/10/05 03:51:15;;;;;;;6.53;2.30;;;17.90;99.90;;;;;;5045375;28;20119;-76
2023/10/05 03:53:48;;;;;;;12.35;2.50;;;18.00;99.90;;;;;;5013012;28;20474;-73
2023/10/05 03:56:23;;;;;;;12.43;2.70;;;18.00;99.90;;;;;;5035997;28;20395;-72
2023/10/05 03:58:52;;;;;;;11.07;2.85;;;17.90;99.90;;;;;;5026193;28;20108;-73
2023/10/05 04:01:18;;;;;;;13.95;3.03;;;18.00;99.90;;;;;;5026823;28;20056;-73
2023/10/05 04:03:46;;;;;;;9.27;2.30;;;18.00;99.90;;;;;;5026141;28;20121;-73
2023/10/05 04:06:24;;;;;;;10.45;3.35;;;18.00;99.90;;;;;;5026506;28;20037;-70
2023/10/05 04:08:59;;;;;;;9.07;2.88;;;17.90;99.90;;;;;;5015090;28;20433;-73
2023/10/05 04:11:28;;;;;;;7.28;2.47;;;17.80;99.90;;;;;;5043954;28;20045;-72
2023/10/05 04:13:54;;;;;;;13.65;2.65;;;17.90;99.90;;;;;;5011474;28;20038;-76
2023/10/05 04:16:26;;;;;;;11.43;2.70;;;17.90;99.90;;;;;;5011181;28;20048;-72
2023/10/05 04:18:52;;;;;;;6.82;2.17;;;17.70;99.90;;;;;;4980245;28;20058;-72
2023/10/05 04:21:19;;;;;;;11.98;2.70;;;17.80;99.90;;;;;;5011285;28;20050;-73
2023/10/05 04:23:51;;;;;;;10.35;2.80;;;17.70;99.90;;;;;;5008251;28;20072;-75
2023/10/05 04:26:21;;;;;;;10.63;2.88;;;17.80;99.90;;;;;;4994986;28;20045;-73
2023/10/05 04:28:57;;;;;;;6.72;2.00;;;17.80;99.90;;;;;;5010797;28;20049;-73
2023/10/05 04:31:25;;;;;;;7.60;2.50;;;17.80;99.90;;;;;;4996131;28;20069;-76
2023/10/05 04:33:54;;;;;;;10.10;2.20;;;17.90;99.90;;;;;;5011964;28;20045;-74
2023/10/05 04:36:22;;;;;;;10.73;3.20;;;17.90;99.90;;;;;;4995818;28;20046;-72
2023/10/05 04:38:49;;;;;;;10.68;3.00;;;17.70;99.90;;;;;;5011468;28;20116;-72
2023/10/05 04:41:19;;;;;;;6.70;2.75;;;17.90;99.90;;;;;;5011809;28;20030;-72
2023/10/05 04:43:48;;;;;;;10.07;2.60;;;17.90;99.90;;;;;;5015273;28;20040;-72
2023/10/05 04:46:18;;;;;;;11.38;2.50;;;17.90;99.90;;;;;;5028241;28;20047;-74
2023/10/05 04:48:55;;;;;;;12.15;3.17;;;17.80;99.90;;;;;;5027798;28;20034;-74
2023/10/05 04:51:28;;;;;;;17.05;2.95;;;17.90;99.90;;;;;;5000135;28;20041;-73
2023/10/05 04:53:58;;;;;;;8.70;2.60;;;17.90;99.90;;;;;;5011733;28;20242;-73
2023/10/05 05:07:01;;;;;;;15.18;4.70;;;17.70;99.90;;;;;;5011946;28;20106;-75
2023/10/05 05:09:34;;;;;;;13.95;3.00;;;17.80;99.90;;;;;;5011379;28;20048;-77
2023/10/05 05:12:04;;;;;;;10.05;3.13;;;17.90;99.90;;;;;;5010386;28;20077;-73
2023/10/05 05:14:41;;;;;;;17.85;3.13;;;17.90;99.90;;;;;;4994954;28;20045;-73
2023/10/05 05:17:10;;;;;;;12.35;2.67;;;17.80;99.90;;;;;;4995799;28;20100;-73
2023/10/05 05:19:39;;;;;;;12.27;2.97;;;18.00;99.90;;;;;;5037616;28;20045;-73
2023/10/05 05:22:06;;;;;;;8.80;2.80;;;17.90;99.90;;;;;;5010893;28;20124;-73
2023/10/05 05:24:36;;;;;;;10.93;2.92;;;17.80;99.90;;;;;;5011023;28;20573;-73
2023/10/05 05:27:19;;;;;;;10.77;3.08;;;17.90;99.90;;;;;;5011088;28;20045;-72
2023/10/05 05:29:51;;;;;;;14.95;3.35;;;17.90;99.90;;;;;;5011139;28;20056;-74
2023/10/05 05:32:19;;;;;;;9.35;2.72;;;18.00;99.90;;;;;;5010861;28;20045;-72
2023/10/05 05:34:45;;;;;;;12.73;3.00;;;18.00;99.90;;;;;;5008753;28;20505;-72
2023/10/05 05:39:54;;;;;;;13.07;3.00;;;18.20;99.90;;;;;;5023701;28;20057;-71
2023/10/05 05:42:20;;;;;;;12.48;3.25;;;18.20;99.90;;;;;;5006996;28;20077;-73
2023/10/05 05:44:46;;;;;;;11.73;2.80;;;18.20;99.90;;;;;;5006729;28;20056;-74
2023/10/05 05:47:14;;;;;;;17.25;3.17;;;18.30;99.90;;;;;;5007220;28;20041;-71
2023/10/05 05:49:40;;;;;;;10.20;2.88;;;18.20;99.90;;;;;;4990965;28;20683;-76
2023/10/05 05:52:10;;;;;;;8.85;2.92;;;18.20;99.90;;;;;;5008739;28;20041;-72
2023/10/05 05:54:36;;;;;;;9.90;3.17;;;18.20;99.90;;;;;;5038110;28;20048;-72
2023/10/05 05:57:06;;;;;;;11.48;2.78;;;18.30;99.90;;;;;;5007473;28;20596;-77
2023/10/05 05:59:36;;;;;;;13.70;3.33;;;18.20;99.90;;;;;;4991920;28;20383;-76
2023/10/05 06:02:08;;;;;;;12.73;3.47;;;18.20;99.90;;;;;;5024625;28;20046;-72
2023/10/05 06:04:43;;;;;;;7.47;2.97;;;18.40;99.90;;;;;;5024350;28;20046;-75
2023/10/05 06:07:11;;;;;;;;;;;18.30;99.90;;;;;;4992602;28;20583;-70
2023/10/05 06:09:43;;;;;;;10.20;3.03;;;18.40;99.90;;;;;;5040417;28;19923;-75
2023/10/05 06:12:11;;;;;;;15.52;3.33;;;18.60;99.90;;;;;;5010830;28;20124;-73
2023/10/05 06:14:43;;;;;;;15.70;3.95;;;18.70;99.90;;;;;;5010729;28;20037;-74
2023/10/05 06:17:09;;;;;;;8.35;2.80;;;18.60;99.90;;;;;;5010833;28;20144;-70
2023/10/05 06:19:36;;;;;;;11.55;3.58;;;18.70;99.90;;;;;;5011470;28;20496;-75
2023/10/05 06:22:06;;;;;;;13.90;2.92;;;18.70;99.90;;;;;;5011037;28;20351;-76
2023/10/05 06:24:35;;;;;;;17.60;3.63;;;18.80;99.90;;;;;;5011168;28;20124;-71
2023/10/05 06:27:01;;;;;;;13.48;3.60;;;18.90;99.90;;;;;;5007929;28;20543;-72
2023/10/05 06:29:27;;;;;;;11.93;2.95;;;19.00;99.90;;;;;;4994624;28;20126;-75
2023/10/05 06:31:53;;;;;;;10.43;2.70;;;18.90;99.90;;;;;;5010370;28;20129;-74
2023/10/05 06:34:18;;;;;;;14.10;3.10;;;18.90;99.90;;;;;;4994675;28;20128;-73
2023/10/05 06:36:44;;;;;;;17.15;3.65;;;18.90;99.90;;;;;;4993686;28;20033;-73
2023/10/05 06:39:12;;;;;;;10.68;2.83;;;19.00;99.90;;;;;;5011181;28;20038;-74
2023/10/05 06:41:38;;;;;;;15.85;2.95;;;19.10;99.90;;;;;;4994471;28;20055;-72
2023/10/05 06:44:07;;;;;;;11.77;2.92;;;19.00;99.90;;;;;;4992379;28;20037;-74
2023/10/05 06:46:33;;;;;;;11.48;2.72;;;19.10;99.90;;;;;;5016156;28;20077;-71
2023/10/05 06:48:59;;;;;;;12.38;3.38;;;19.00;99.90;;;;;;4994101;28;20079;-74
2023/10/05 06:51:29;;;;;;;15.45;4.18;;;19.30;99.90;;;;;;4994203;28;20144;-72
2023/10/05 06:53:57;;;;;;;11.52;2.90;;;19.20;99.90;;;;;;5010622;28;20588;-73
2023/10/05 06:56:23;;;;;;;14.93;3.85;;;19.30;99.90;;;;;;5010759;28;20084;-71
2023/10/05 06:58:49;;;;;;;8.73;2.28;;;19.20;99.90;;;;;;4981272;28;20044;-75
2023/10/05 07:01:15;;;;;;;12.38;3.03;;;19.40;99.90;;;;;;5011666;28;20052;-72
2023/10/05 07:03:41;;;;;;;12.48;3.25;;;19.50;99.90;;;;;;5013200;28;20121;-71
2023/10/05 07:06:07;;;;;;;16.70;3.90;;;19.40;99.90;;;;;;4997951;28;20556;-74
2023/10/05 07:08:33;;;;;;;10.90;3.10;;;19.40;99.90;;;;;;5013875;28;20516;-71
2023/10/05 07:10:59;;;;;;;11.07;3.15;;;19.40;99.90;;;;;;4997198;28;20132;-73
2023/10/05 07:13:28;;;;;;;10.65;3.42;;;19.60;99.90;;;;;;5013835;28;20132;-75
2023/10/05 07:15:55;;;;;;;15.45;3.22;;;19.70;99.90;;;;;;5013767;28;20409;-77
2023/10/05 07:18:21;;;;;;;14.68;3.28;;;19.60;99.90;;;;;;5012493;28;20049;-75
2023/10/05 07:20:48;;;;;;;9.80;3.10;;;19.70;99.90;;;;;;4993246;28;20096;-71
2023/10/05 07:23:14;;;;;;;13.98;3.40;;;19.90;99.90;;;;;;5034070;28;20056;-74
2023/10/05 07:25:41;;;;;;;11.57;3.20;;;19.90;99.90;;;;;;5013697;28;20394;-74
2023/10/05 07:28:14;;;;;;;9.77;3.25;;;19.80;99.90;;;;;;5013747;28;20053;-72
2023/10/05 07:30:44;;;;;;;13.40;3.22;;;19.90;99.90;;;;;;4998401;28;20156;-73
2023/10/05 07:33:11;;;;;;;9.55;2.90;;;20.10;99.90;;;;;;4996860;28;20128;-74
2023/10/05 07:35:38;;;;;;;11.55;2.67;;;20.10;99.90;;;;;;4994702;28;20714;-73
2023/10/05 07:38:06;;;;;;;11.35;3.00;;;20.20;99.90;;;;;;5011220;28;20053;-71
2023/10/05 07:40:35;;;;;;;13.20;2.83;;;20.20;99.90;;;;;;5012925;28;20049;-72
2023/10/05 07:43:02;;;;;;;12.85;3.50;;;20.20;99.90;;;;;;5012524;28;20049;-73
2023/10/05 07:45:27;;;;;;;13.75;3.03;;;20.20;99.90;;;;;;5020572;28;20711;-70
2023/10/05 07:47:53;;;;;;;9.25;3.20;;;20.30;99.90;;;;;;4993365;28;20091;-72
2023/10/05 07:50:19;;;;;;;12.80;3.47;;;20.20;99.90;;;;;;5009715;28;20061;-77
2023/10/05 07:52:46;;;;;;;12.32;3.63;;;20.20;99.90;;;;;;4984221;28;20063;-72
2023/10/05 07:55:13;;;;;;;13.35;2.78;;;20.20;99.90;;;;;;5012333;28;20042;-76
2023/10/05 07:57:39;;;;;;;13.13;4.13;;;20.30;99.90;;;;;;5017163;28;20052;-78
2023/10/05 08:00:06;;;;;;;10.18;3.00;;;20.20;99.90;;;;;;4992828;28;20046;-75
2023/10/05 08:02:32;;;;;;;13.45;2.80;;;20.10;99.90;;;;;;5026092;28;20057;-75
2023/10/05 08:04:58;;;;;;;9.93;2.63;;;20.20;99.90;;;;;;5007598;28;20538;-77
2023/10/05 08:07:24;;;;;;;8.13;2.95;;;20.10;99.90;;;;;;5012299;28;20129;-76
2023/10/05 08:09:49;;;;;;;9.48;3.15;;;20.10;99.90;;;;;;4993856;28;20114;-74
2023/10/05 08:12:15;;;;;;;11.60;3.63;;;19.90;99.90;;;;;;5028740;28;20457;-75
2023/10/05 08:14:41;;;;;;;8.85;2.88;;;19.90;99.90;;;;;;5003141;28;20045;-75
2023/10/05 08:17:07;;;;;;;7.78;2.60;;;20.00;99.90;;;;;;4992918;28;20042;-73
2023/10/05 08:19:32;;;;;;;14.98;3.30;;;20.00;99.90;;;;;;5009018;28;20406;-76
2023/10/05 08:21:58;;;;;;;9.85;3.40;;;20.00;99.90;;;;;;4999270;28;20049;-72
2023/10/05 08:24:24;;;;;;;10.75;2.85;;;19.70;99.90;;;;;;5012551;28;20045;-73
2023/10/05 08:26:56;;;;;;;17.92;3.55;;;19.90;99.90;;;;;;5045263;28;20138;-76
2023/10/05 08:29:22;;;;;;;11.40;3.22;;;19.90;99.90;;;;;;5010281;28;20482;-78
2023/10/05 08:31:52;;;;;;;10.13;3.03;;;19.90;99.90;;;;;;5009985;28;20041;-75
2023/10/05 08:34:21;;;;;;;12.00;3.00;;;19.90;99.90;;;;;;5010814;28;20033;-77
2023/10/05 08:36:49;;;;;;;10.27;3.67;;;20.10;99.90;;;;;;5010900;28;20494;-76
2023/10/05 08:39:16;;;;;;;9.60;3.05;;;19.90;99.90;;;;;;4994947;28;20049;-76
2023/10/05 08:41:42;;;;;;;10.05;3.00;;;20.10;99.90;;;;;;5044178;28;20397;-72
2023/10/05 08:47:06;;;;;;;;;;;20.00;99.90;;;;;;4994944;28;20083;-77
2023/10/05 08:49:36;;;;;;;8.25;3.80;;;20.00;99.90;;;;;;5010861;28;19917;-77
2023/10/05 08:52:12;;;;;;;8.32;3.38;;;20.00;99.90;;;;;;4995174;28;20033;-73
2023/10/05 08:54:38;;;;;;;9.40;3.50;;;20.10;99.90;;;;;;5012117;28;20056;-72
2023/10/05 08:57:10;;;;;;;12.25;3.63;;;20.10;99.90;;;;;;5011778;28;20048;-74
2023/10/05 08:59:45;;;;;;;8.55;3.20;;;20.00;99.90;;;;;;5011967;28;20073;-74
2023/10/05 09:02:11;;;;;;;;;;;20.00;99.90;;;;;;5045316;28;20041;-74
2023/10/05 09:04:43;;;;;;;9.07;3.40;;;20.20;99.90;;;;;;4992412;28;19921;-77
2023/10/05 09:07:36;;;;;;;13.20;3.60;;;20.00;99.90;;;;;;5028741;28;20413;-77
2023/10/05 09:10:07;;;;;;;10.10;3.53;;;20.20;99.90;;;;;;5010887;28;20092;-76
2023/10/05 09:12:34;;;;;;;8.85;3.53;;;20.30;99.90;;;;;;5011603;28;20042;-73
2023/10/05 09:15:19;;;;;;;10.10;3.22;;;20.10;99.90;;;;;;5011676;28;20041;-76
2023/10/05 09:17:57;;;;;;;11.10;3.55;;;20.40;99.90;;;;;;5011699;28;20387;-74
2023/10/05 09:20:36;;;;;;;9.48;3.50;;;20.60;99.90;;;;;;5009935;28;20046;-74
2023/10/05 09:23:04;;;;;;;10.02;3.88;;;20.60;99.90;;;;;;5011037;28;20053;-73
2023/10/05 09:25:38;;;;;;;9.13;3.78;;;20.60;99.90;;;;;;5010873;28;20482;-73
2023/10/05 09:28:15;;;;;;;10.25;3.42;;;20.30;99.90;;;;;;5010872;28;20124;-73
2023/10/05 09:30:55;;;;;;;12.95;3.33;;;20.40;99.90;;;;;;5010569;28;20124;-75
2023/10/05 09:33:21;;;;;;;14.05;4.10;;;20.30;99.90;;;;;;5027961;28;20072;-74
2023/10/05 09:35:48;;;;;;;6.35;2.70;;;20.20;99.90;;;;;;4995169;28;20037;-73
2023/10/05 09:38:23;;;;;;;10.07;3.28;;;20.40;99.90;;;;;;5009145;28;20080;-71
2023/10/05 09:40:53;;;;;;;6.00;2.53;;;20.20;99.90;;;;;;5009777;28;20347;-74
2023/10/05 09:43:21;;;;;;;8.07;3.05;;;20.50;99.90;;;;;;5011330;28;20557;-71
2023/10/05 09:45:56;;;;;;;9.50;3.35;;;20.60;99.90;;;;;;5011799;28;20042;-71
2023/10/05 09:48:24;;;;;;;9.48;3.35;;;20.60;99.90;;;;;;5011590;28;20064;-71
2023/10/05 09:50:52;;;;;;;8.63;3.15;;;20.70;99.90;;;;;;5028868;28;20448;-72
2023/10/05 09:53:19;;;;;;;7.75;2.95;;;20.50;99.90;;;;;;5024646;28;20422;-74
2023/10/05 09:55:53;;;;;;;7.00;2.95;;;20.90;99.90;;;;;;4975020;28;20529;-70
2023/10/05 09:58:23;;;;;;;5.30;2.47;;;20.60;99.90;;;;;;5005865;28;20125;-72
2023/10/05 10:00:50;;;;;;;7.45;2.95;;;20.60;99.90;;;;;;4993502;28;20081;-69
2023/10/05 10:03:17;;;;;;;7.43;3.35;;;20.80;99.90;;;;;;4992964;28;20139;-70
2023/10/05 10:05:52;;;;;;;9.73;3.05;;;20.70;99.90;;;;;;5009775;28;20041;-72
2023/10/05 10:08:28;;;;;;;6.82;2.35;;;21.00;99.90;;;;;;5009402;28;20041;-69
2023/10/05 10:11:09;;;;;;;7.45;2.95;;;20.90;99.90;;;;;;5010101;28;20049;-72
2023/10/05 10:13:37;;;;;;;6.25;2.90;;;21.00;99.90;;;;;;5010621;28;20619;-72
2023/10/05 10:16:22;;;;;;;11.98;3.50;;;21.00;99.90;;;;;;5007681;28;20052;-75
2023/10/05 10:19:03;;;;;;;;;;;21.10;99.90;;;;;;4994079;28;20041;-69
2023/10/05 10:21:41;;;;;;;9.75;3.55;;;21.40;99.90;;;;;;5011046;28;19917;-73
2023/10/05 10:24:14;;;;;;;10.48;3.95;;;21.10;99.90;;;;;;5010992;28;20462;-72
2023/10/05 10:26:44;;;;;;;10.55;3.90;;;21.40;99.90;;;;;;5010979;28;20104;-76
2023/10/05 10:29:11;;;;;;;10.30;4.63;;;21.60;99.90;;;;;;5010576;28;20068;-72
2023/10/05 10:31:43;;;;;;;10.20;4.60;;;21.50;99.90;;;;;;5012661;28;20490;-75
2023/10/05 10:34:19;;;;;;;7.47;4.60;;;21.70;99.90;;;;;;5019285;28;20427;-74
2023/10/05 10:36:52;;;;;;;12.35;4.45;;;21.80;99.90;;;;;;4994517;28;20038;-77
2023/10/05 10:39:27;;;;;;;11.82;3.63;;;21.40;99.90;;;;;;4998521;28;20037;-74
2023/10/05 10:44:41;;;;;;;7.80;3.20;;;21.80;99.90;;;;;;5014389;28;20049;-72
2023/10/05 10:47:09;;;;;;;9.30;3.30;;;22.00;99.90;;;;;;5014397;28;20466;-75
2023/10/05 10:49:39;;;;;;;10.50;3.78;;;22.40;99.90;;;;;;5011046;28;20087;-75
2023/10/05 10:52:11;;;;;;;8.77;3.05;;;22.60;99.90;;;;;;5013558;28;20046;-74
2023/10/05 10:54:45;;;;;;;8.30;2.85;;;22.80;99.90;;;;;;5014230;28;20044;-77
2023/10/05 10:57:20;;;;;;;10.05;3.58;;;22.70;99.90;;;;;;5013919;28;20080;-75
2023/10/05 10:59:46;;;;;;;;;;;22.50;99.90;;;;;;5013761;28;20355;-75
2023/10/05 11:02:19;;;;;;;9.48;2.90;;;22.30;99.90;;;;;;5027374;28;19927;-73
2023/10/05 11:04:47;;;;;;;10.05;3.25;;;22.40;99.90;;;;;;5013439;28;20052;-70
2023/10/05 11:07:13;;;;;;;8.40;3.22;;;22.30;99.90;;;;;;5013765;28;20382;-70
2023/10/05 11:09:48;;;;;;;7.25;2.85;;;22.30;99.90;;;;;;4994867;28;20045;-73
2023/10/05 11:12:17;;;;;;;9.73;3.03;;;22.10;99.90;;;;;;5012652;28;20088;-70
2023/10/05 11:14:43;;;;;;;5.10;2.55;;;22.10;99.90;;;;;;5013688;28;20037;-73
2023/10/05 11:17:35;;;;;;;11.05;2.40;;;21.70;99.90;;;;;;4996762;28;20477;-73
2023/10/05 11:20:23;;;;;;;5.05;2.03;;;21.50;99.90;;;;;;4997581;28;20136;-74
2023/10/05 11:22:54;;;;;;;6.00;2.40;;;21.30;99.90;;;;;;4997425;28;20041;-71
2023/10/05 11:25:31;;;;;;;7.88;2.45;;;21.40;99.90;;;;;;4995151;28;20052;-74
2023/10/05 11:27:59;;;;;;;11.85;2.95;;;21.30;99.90;;;;;;5013705;28;20056;-74
2023/10/05 11:30:41;;;;;;;6.35;2.67;;;21.70;99.90;;;;;;5013754;28;20132;-71
2023/10/05 11:33:16;;;;;;;6.95;2.88;;;21.90;99.90;;;;;;5013428;28;20540;-73
2023/10/05 11:35:49;;;;;;;8.18;2.80;;;21.80;99.90;;;;;;5013637;28;20053;-73
2023/10/05 11:38:19;;;;;;;5.72;2.60;;;22.10;99.90;;;;;;5013022;28;20095;-72
2023/10/05 11:40:53;;;;;;;8.23;2.83;;;22.10;99.90;;;;;;5013814;28;20414;-75
2023/10/05 11:43:23;;;;;;;7.00;3.13;;;22.00;99.90;;;;;;5011126;28;20114;-71
2023/10/05 11:46:17;;;;;;;6.03;3.10;;;22.00;99.90;;;;;;5013207;28;20048;-75
2023/10/05 11:48:48;;;;;;;8.82;2.95;;;22.00;99.90;;;;;;5013314;28;20041;-72
2023/10/05 11:51:19;;;;;;;8.90;2.65;;;22.20;99.90;;;;;;5012964;28;20049;-73
2023/10/05 11:53:46;;;;;;;7.10;3.10;;;22.10;99.90;;;;;;5013412;28;20045;-72
2023/10/05 11:56:17;;;;;;;6.45;1.95;;;21.70;99.90;;;;;;5012875;28;20053;-74
2023/10/05 11:58:47;;;;;;;5.07;2.22;;;21.40;99.90;;;;;;5012747;28;20040;-73
2023/10/05 12:01:19;;;;;;;5.65;2.28;;;21.50;99.90;;;;;;5006868;28;20045;-73
2023/10/05 12:03:47;;;;;;;6.10;2.45;;;21.40;99.90;;;;;;5013088;28;20690;-70
2023/10/05 12:06:16;;;;;;;4.97;2.10;;;21.50;99.90;;;;;;5012963;28;20505;-70
2023/10/05 12:08:42;;;;;;;4.80;1.92;;;21.50;99.90;;;;;;5012506;28;20054;-74
2023/10/05 12:11:10;;;;;;;5.72;3.40;;;21.60;99.90;;;;;;4979871;28;20093;-72
2023/10/05 12:13:36;;;;;;;4.03;2.05;;;21.60;99.90;;;;;;4996649;28;20042;-73
2023/10/05 12:16:11;;;;;;;5.80;2.20;;;21.50;99.90;;;;;;4996653;28;20040;-71
2023/10/05 12:18:37;;;;;;;6.95;2.47;;;21.50;99.90;;;;;;4979961;28;20128;-71
2023/10/05 12:21:03;;;;;;;3.95;1.80;;;21.60;99.90;;;;;;5012479;28;20570;-70
2023/10/05 12:23:28;;;;;;;5.47;2.00;;;21.70;99.90;;;;;;4996426;28;20084;-72
2023/10/05 12:25:54;;;;;;;7.35;2.42;;;21.60;99.90;;;;;;5045914;28;20662;-72
2023/10/05 12:28:23;;;;;;;4.25;1.88;;;21.70;99.90;;;;;;5012205;28;20407;-72
2023/10/05 12:30:49;;;;;;;4.93;2.08;;;21.70;99.90;;;;;;5012212;28;20629;-73
2023/10/05 12:33:15;;;;;;;6.43;2.58;;;21.80;99.90;;;;;;4995872;28;20049;-75
2023/10/05 12:35:43;;;;;;;14.38;2.67;;;21.80;99.90;;;;;;4994618;28;20133;-73
2023/10/05 12:38:10;;;;;;;6.00;2.20;;;21.90;99.90;;;;;;5044957;28;20373;-70
2023/10/05 12:40:41;;;;;;;10.98;2.20;;;22.00;99.90;;;;;;4995682;28;20056;-72
2023/10/05 12:43:15;;;;;;;5.32;2.33;;;22.00;99.90;;;;;;4996108;28;20053;-73
2023/10/05 12:45:41;;;;;;;4.93;2.10;;;22.00;99.90;;;;;;4996468;28;20041;-71
2023/10/05 12:48:06;;;;;;;7.72;2.45;;;22.10;99.90;;;;;;4995488;28;20041;-71
2023/10/05 12:50:32;;;;;;;5.88;2.35;;;22.20;99.90;;;;;;4994431;28;20122;-73
2023/10/05 12:52:58;;;;;;;9.93;2.55;;;22.20;99.90;;;;;;5044285;28;20474;-74
2023/10/05 12:55:29;;;;;;;7.20;3.13;;;22.20;99.90;;;;;;5010612;28;20151;-75
2023/10/05 12:57:55;;;;;;;4.20;1.60;;;22.00;99.90;;;;;;4995909;28;20098;-71
2023/10/05 13:00:34;;;;;;;5.88;1.58;;;21.60;99.90;;;;;;4995023;28;20069;-69
2023/10/05 13:03:04;;;;;;;4.00;1.67;;;21.40;99.90;;;;;;5005548;28;20053;-70
2023/10/05 13:05:31;;;;;;;5.90;2.10;;;21.00;99.90;;;;;;4996051;28;20045;-74
2023/10/05 13:08:03;;;;;;;7.88;2.22;;;20.70;99.90;;;;;;5010608;28;20049;-71
2023/10/05 13:10:32;;;;;;;4.20;2.00;;;20.60;99.90;;;;;;5027995;28;20037;-74
2023/10/05 13:13:00;;;;;;;6.95;2.20;;;20.40;99.90;;;;;;5026150;28;20038;-76
2023/10/05 13:15:33;;;;;;;4.70;2.38;;;20.40;99.90;;;;;;5024770;28;20034;-76
2023/10/05 13:18:20;;;;;;;5.97;2.17;;;20.50;99.90;;;;;;4992123;28;20061;-73
2023/10/05 13:20:48;;;;;;;4.05;2.00;;;20.40;99.90;;;;;;4975993;28;20049;-75
2023/10/05 13:23:18;;;;;;;5.55;2.20;;;20.50;99.90;;;;;;5034303;28;20470;-76